createdAt,value
2023-04-16T00:00:54.223Z,9.45
2023-04-16T00:03:22.148Z,9.49
2023-04-16T00:05:50.039Z,9.45
2023-04-16T00:08:17.705Z,9.46
2023-04-16T00:10:46.814Z,9.51
2023-04-16T00:13:14.558Z,9.45
2023-04-16T00:15:42.171Z,9.50
2023-04-16T00:18:09.920Z,9.53
2023-04-16T00:20:37.953Z,9.56
2023-04-16T00:23:05.720Z,9.67
2023-04-16T00:25:33.364Z,9.70
2023-04-16T00:28:02.883Z,9.65
2023-04-16T00:30:30.574Z,9.60
2023-04-16T00:32:58.440Z,9.55
2023-04-16T00:35:26.307Z,9.59
2023-04-16T00:37:53.986Z,9.62
2023-04-16T00:40:22.048Z,9.68
2023-04-16T00:42:49.756Z,9.71
2023-04-16T00:45:18.839Z,9.70
2023-04-16T00:47:46.812Z,9.60
2023-04-16T00:50:15.184Z,9.63
2023-04-16T00:52:43.676Z,9.59
2023-04-16T00:55:13.371Z,9.60
2023-04-16T00:57:41.081Z,9.63
2023-04-16T01:00:09.825Z,9.54
2023-04-16T01:02:39.336Z,9.64
2023-04-16T01:05:07.790Z,9.69
2023-04-16T01:07:35.759Z,9.74
2023-04-16T01:10:04.074Z,9.70
2023-04-16T01:12:32.518Z,9.61
2023-04-16T01:15:00.744Z,9.64
2023-04-16T01:17:28.483Z,9.64
2023-04-16T01:20:00.593Z,9.67
2023-04-16T01:22:29.902Z,9.61
2023-04-16T01:24:57.639Z,9.57
2023-04-16T01:27:25.535Z,9.53
2023-04-16T01:29:53.378Z,9.52
2023-04-16T01:32:21.094Z,9.61
2023-04-16T01:34:48.791Z,9.62
2023-04-16T01:37:16.602Z,9.67
2023-04-16T01:39:45.788Z,9.64
2023-04-16T01:42:13.449Z,9.55
2023-04-16T01:44:41.125Z,9.58
2023-04-16T01:47:09.515Z,9.42
2023-04-16T01:49:37.602Z,9.36
2023-04-16T01:52:05.650Z,9.42
2023-04-16T01:54:33.680Z,9.49
2023-04-16T01:57:03.189Z,9.50
2023-04-16T01:59:30.877Z,9.56
2023-04-16T02:02:02.352Z,9.58
2023-04-16T02:04:30.101Z,9.58
2023-04-16T02:06:57.760Z,9.56
2023-04-16T02:09:25.598Z,9.53
2023-04-16T02:11:53.289Z,9.53
2023-04-16T02:14:25.496Z,9.47
2023-04-16T02:16:53.324Z,9.61
2023-04-16T02:19:21.712Z,9.65
2023-04-16T02:21:49.602Z,9.60
2023-04-16T02:24:17.300Z,9.53
2023-04-16T02:26:45.050Z,9.59
2023-04-16T02:29:12.758Z,9.60
2023-04-16T02:31:41.899Z,9.55
2023-04-16T02:34:09.672Z,9.53
2023-04-16T02:36:37.868Z,9.62
2023-04-16T02:39:06.289Z,9.68
2023-04-16T02:41:34.032Z,9.58
2023-04-16T02:44:02.007Z,9.60
2023-04-16T02:46:29.727Z,9.50
2023-04-16T02:48:58.792Z,9.44
2023-04-16T02:51:27.704Z,9.50
2023-04-16T02:53:55.384Z,9.47
2023-04-16T02:56:23.060Z,9.44
2023-04-16T02:58:50.715Z,9.55
2023-04-16T03:01:18.477Z,9.41
2023-04-16T03:03:46.334Z,9.44
2023-04-16T03:06:15.576Z,9.48
2023-04-16T03:08:43.304Z,9.41
2023-04-16T03:11:11.014Z,9.45
2023-04-16T03:13:38.787Z,9.49
2023-04-16T03:16:07.667Z,9.43
2023-04-16T03:18:35.674Z,9.48
2023-04-16T03:21:03.575Z,9.58
2023-04-16T03:23:32.932Z,9.52
2023-04-16T03:26:00.662Z,9.54
2023-04-16T03:28:28.345Z,9.59
2023-04-16T03:30:56.070Z,9.66
2023-04-16T03:33:23.776Z,9.63
2023-04-16T03:35:57.181Z,9.64
2023-04-16T03:38:25.042Z,9.60
2023-04-16T03:40:54.118Z,9.58
2023-04-16T03:43:22.145Z,9.59
2023-04-16T03:45:49.983Z,9.61
2023-04-16T03:48:17.691Z,9.60
2023-04-16T03:50:47.897Z,9.59
2023-04-16T03:53:15.907Z,9.58
2023-04-16T03:55:43.843Z,9.62
2023-04-16T03:58:12.945Z,9.63
2023-04-16T04:00:42.780Z,9.62
2023-04-16T04:03:10.986Z,9.65
2023-04-16T04:05:39.059Z,9.55
2023-04-16T04:08:07.007Z,9.54
2023-04-16T04:10:35.379Z,9.58
2023-04-16T04:13:04.876Z,9.58
2023-04-16T04:15:34.039Z,9.61
2023-04-16T04:18:01.813Z,9.65
2023-04-16T04:20:29.756Z,9.73
2023-04-16T04:22:57.597Z,9.78
2023-04-16T04:25:25.528Z,9.76
2023-04-16T04:27:53.238Z,9.76
2023-04-16T04:30:21.085Z,9.72
2023-04-16T04:32:50.696Z,9.77
2023-04-16T04:35:18.601Z,9.80
2023-04-16T04:37:46.498Z,9.81
2023-04-16T04:40:14.201Z,9.77
2023-04-16T04:42:41.917Z,9.75
2023-04-16T04:45:11.508Z,9.67
2023-04-16T04:47:39.322Z,9.68
2023-04-16T04:50:09.703Z,9.63
2023-04-16T04:52:37.620Z,9.66
2023-04-16T04:55:06.098Z,9.58
2023-04-16T04:57:33.748Z,9.66
2023-04-16T05:00:03.688Z,9.73
2023-04-16T05:02:31.607Z,9.69
2023-04-16T05:04:59.389Z,9.70
2023-04-16T05:07:28.467Z,9.77
2023-04-16T05:09:56.122Z,9.81
2023-04-16T05:12:23.916Z,9.82
2023-04-16T05:14:51.615Z,9.82
2023-04-16T05:17:19.504Z,9.78
2023-04-16T05:19:47.258Z,9.79
2023-04-16T05:22:18.763Z,9.81
2023-04-16T05:24:47.885Z,9.82
2023-04-16T05:27:15.814Z,9.73
2023-04-16T05:29:43.479Z,9.73
2023-04-16T05:32:11.217Z,9.67
2023-04-16T05:34:38.951Z,9.76
2023-04-16T05:37:06.631Z,9.77
2023-04-16T05:39:34.340Z,9.72
2023-04-16T05:42:03.529Z,9.77
2023-04-16T05:44:31.237Z,9.74
2023-04-16T05:46:58.931Z,9.80
2023-04-16T05:49:26.634Z,9.74
2023-04-16T05:51:54.389Z,9.62
2023-04-16T05:54:22.312Z,9.60
2023-04-16T05:56:49.949Z,9.65
2023-04-16T05:59:19.007Z,9.73
2023-04-16T06:01:46.733Z,9.81
2023-04-16T06:04:14.580Z,9.83
2023-04-16T06:06:43.972Z,9.81
2023-04-16T06:09:12.268Z,9.78
2023-04-16T06:11:40.112Z,9.80
2023-04-16T06:14:08.031Z,9.82
2023-04-16T06:16:38.775Z,9.89
2023-04-16T06:19:06.516Z,9.87
2023-04-16T06:21:34.631Z,9.87
2023-04-16T06:24:02.398Z,9.90
2023-04-16T06:26:30.060Z,9.98
2023-04-16T06:28:59.864Z,10.01
2023-04-16T06:31:27.964Z,10.04
2023-04-16T06:33:57.036Z,10.09
2023-04-16T06:36:24.747Z,10.19
2023-04-16T06:38:52.411Z,10.25
2023-04-16T06:41:20.248Z,10.26
2023-04-16T06:43:47.988Z,10.20
2023-04-16T06:46:15.850Z,10.18
2023-04-16T06:48:43.676Z,10.25
2023-04-16T06:51:13.277Z,10.24
2023-04-16T06:53:42.418Z,10.18
2023-04-16T06:56:10.185Z,10.19
2023-04-16T06:58:38.121Z,10.21
2023-04-16T07:01:06.125Z,10.23
2023-04-16T07:03:34.058Z,10.17
2023-04-16T07:06:02.342Z,10.18
2023-04-16T07:08:31.451Z,10.26
2023-04-16T07:10:59.351Z,10.34
2023-04-16T07:13:27.643Z,10.39
2023-04-16T07:15:55.461Z,10.42
2023-04-16T07:18:23.472Z,10.50
2023-04-16T07:20:51.272Z,10.54
2023-04-16T07:23:19.033Z,10.76
2023-04-16T07:25:48.257Z,10.84
2023-04-16T07:28:17.582Z,10.88
2023-04-16T07:30:45.536Z,10.91
2023-04-16T07:33:13.389Z,10.97
2023-04-16T07:35:41.151Z,11.02
2023-04-16T07:38:09.241Z,10.98
2023-04-16T07:40:38.658Z,10.86
2023-04-16T07:43:08.446Z,10.83
2023-04-16T07:45:36.969Z,10.69
2023-04-16T07:48:05.264Z,10.65
2023-04-16T07:50:33.387Z,10.67
2023-04-16T07:53:01.255Z,10.64
2023-04-16T07:55:29.033Z,10.79
2023-04-16T07:57:56.789Z,10.93
2023-04-16T08:00:26.327Z,10.93
2023-04-16T08:02:54.394Z,11.00
2023-04-16T08:05:22.350Z,11.13
2023-04-16T08:07:50.204Z,11.14
2023-04-16T08:10:18.362Z,11.11
2023-04-16T08:12:46.295Z,11.15
2023-04-16T08:15:14.040Z,11.25
2023-04-16T08:17:43.245Z,11.24
2023-04-16T08:20:15.021Z,11.33
2023-04-16T08:22:45.848Z,11.38
2023-04-16T08:25:13.596Z,11.45
2023-04-16T08:27:41.399Z,11.57
2023-04-16T08:30:09.740Z,11.61
2023-04-16T08:32:37.814Z,11.69
2023-04-16T08:35:07.710Z,11.88
2023-04-16T08:37:35.788Z,11.94
2023-04-16T08:40:03.983Z,12.02
2023-04-16T08:42:33.559Z,11.97
2023-04-16T08:45:08.792Z,12.02
2023-04-16T08:47:37.739Z,12.11
2023-04-16T08:50:10.018Z,12.20
2023-04-16T08:52:44.103Z,12.23
2023-04-16T08:55:15.100Z,12.27
2023-04-16T08:57:49.993Z,12.15
2023-04-16T09:00:18.550Z,12.02
2023-04-16T09:02:46.958Z,11.95
2023-04-16T09:05:18.127Z,11.93
2023-04-16T09:07:47.323Z,11.98
2023-04-16T09:10:16.113Z,11.93
2023-04-16T09:12:44.583Z,12.04
2023-04-16T09:15:14.201Z,12.14
2023-04-16T09:17:43.019Z,12.33
2023-04-16T09:20:12.494Z,12.43
2023-04-16T09:22:41.667Z,12.58
2023-04-16T09:25:11.033Z,12.79
2023-04-16T09:27:39.126Z,12.85
2023-04-16T09:30:22.883Z,13.04
2023-04-16T09:32:51.215Z,12.99
2023-04-16T09:35:20.003Z,12.96
2023-04-16T09:37:58.905Z,12.91
2023-04-16T09:40:30.477Z,13.02
2023-04-16T09:43:00.742Z,13.04
2023-04-16T09:45:33.989Z,13.21
2023-04-16T09:48:05.931Z,13.29
2023-04-16T09:50:33.679Z,13.33
2023-04-16T09:53:04.465Z,13.30
2023-04-16T09:55:32.242Z,13.43
2023-04-16T09:58:01.243Z,13.53
2023-04-16T10:00:31.001Z,13.54
2023-04-16T10:03:05.785Z,13.45
2023-04-16T10:05:33.639Z,13.49
2023-04-16T10:08:03.000Z,13.58
2023-04-16T10:10:30.856Z,13.69
2023-04-16T10:12:59.021Z,13.82
2023-04-16T10:15:26.951Z,14.03
2023-04-16T10:17:55.193Z,14.13
2023-04-16T10:20:24.913Z,14.23
2023-04-16T10:22:54.217Z,14.26
2023-04-16T10:25:24.397Z,14.38
2023-04-16T10:27:52.750Z,14.35
2023-04-16T10:30:36.297Z,14.51
2023-04-16T10:33:06.285Z,14.43
2023-04-16T10:35:33.998Z,14.44
2023-04-16T10:38:23.157Z,14.15
2023-04-16T10:40:59.129Z,14.18
2023-04-16T10:43:27.017Z,14.27
2023-04-16T10:45:55.194Z,14.43
2023-04-16T10:48:26.321Z,14.45
2023-04-16T10:50:58.515Z,14.43
2023-04-16T10:53:27.930Z,14.59
2023-04-16T10:56:12.660Z,14.54
2023-04-16T10:58:40.401Z,14.63
2023-04-16T11:01:12.101Z,14.59
2023-04-16T11:03:43.899Z,14.45
2023-04-16T11:06:13.520Z,14.57
2023-04-16T11:08:53.919Z,14.68
2023-04-16T11:11:24.543Z,14.66
2023-04-16T11:13:56.953Z,14.53
2023-04-16T11:16:26.498Z,14.48
2023-04-16T11:18:56.729Z,14.36
2023-04-16T11:21:25.412Z,14.28
2023-04-16T11:23:54.331Z,14.40
2023-04-16T11:26:25.157Z,14.33
2023-04-16T11:28:53.384Z,14.47
2023-04-16T11:31:21.232Z,14.56
2023-04-16T11:33:49.110Z,14.53
2023-04-16T11:36:16.952Z,14.82
2023-04-16T11:38:44.723Z,14.89
2023-04-16T11:41:13.208Z,14.86
2023-04-16T11:43:42.313Z,14.84
2023-04-16T11:46:24.073Z,14.89
2023-04-16T11:48:56.443Z,14.99
2023-04-16T11:51:24.408Z,15.04
2023-04-16T11:53:53.512Z,15.28
2023-04-16T11:56:29.379Z,15.45
2023-04-16T11:59:12.408Z,15.55
2023-04-16T12:01:41.813Z,15.42
2023-04-16T12:04:10.463Z,15.46
2023-04-16T12:06:38.861Z,15.27
2023-04-16T12:09:26.084Z,15.22
2023-04-16T12:11:54.210Z,15.28
2023-04-16T12:14:24.194Z,15.04
2023-04-16T12:16:52.156Z,15.04
2023-04-16T12:19:20.047Z,15.06
2023-04-16T12:21:50.314Z,15.09
2023-04-16T12:24:23.342Z,15.10
2023-04-16T12:26:56.162Z,15.06
2023-04-16T12:29:26.230Z,15.02
2023-04-16T12:31:55.065Z,14.98
2023-04-16T12:34:49.247Z,14.94
2023-04-16T12:37:11.303Z,14.80
2023-04-16T12:39:39.073Z,14.71
2023-04-16T12:42:11.268Z,14.58
2023-04-16T12:44:40.603Z,14.56
2023-04-16T12:47:08.539Z,14.64
2023-04-16T12:49:38.200Z,14.76
2023-04-16T12:52:06.385Z,14.78
2023-04-16T12:54:34.167Z,14.91
2023-04-16T12:57:01.980Z,15.01
2023-04-16T12:59:30.000Z,15.01
2023-04-16T13:01:59.352Z,15.07
2023-04-16T13:04:27.369Z,15.04
2023-04-16T13:06:55.354Z,14.97
2023-04-16T13:09:23.328Z,15.08
2023-04-16T13:11:51.254Z,15.12
2023-04-16T13:14:19.073Z,15.02
2023-04-16T13:16:47.315Z,15.13
2023-04-16T13:19:19.136Z,14.99
2023-04-16T13:21:47.065Z,15.09
2023-04-16T13:24:15.249Z,15.19
2023-04-16T13:26:43.720Z,15.14
2023-04-16T13:29:12.131Z,15.16
2023-04-16T13:31:40.228Z,15.32
2023-04-16T13:34:08.466Z,15.58
2023-04-16T13:36:37.902Z,15.66
2023-04-16T13:39:11.490Z,15.76
2023-04-16T13:41:39.974Z,15.75
2023-04-16T13:44:08.492Z,15.78
2023-04-16T13:46:36.596Z,15.64
2023-04-16T13:49:04.359Z,15.83
2023-04-16T13:51:32.109Z,15.75
2023-04-16T13:54:01.572Z,15.73
2023-04-16T13:56:29.429Z,15.63
2023-04-16T13:58:57.272Z,15.73
2023-04-16T14:01:25.189Z,15.77
2023-04-16T14:03:56.102Z,15.70
2023-04-16T14:06:23.922Z,15.72
2023-04-16T14:08:51.660Z,15.58
2023-04-16T14:11:20.754Z,15.57
2023-04-16T14:13:48.631Z,15.56
2023-04-16T14:16:16.563Z,15.58
2023-04-16T14:18:44.624Z,15.70
2023-04-16T14:21:12.396Z,15.74
2023-04-16T14:23:40.344Z,15.78
2023-04-16T14:26:08.158Z,15.88
2023-04-16T14:28:37.463Z,15.93
2023-04-16T14:31:05.248Z,15.91
2023-04-16T14:33:33.458Z,16.00
2023-04-16T14:36:03.214Z,15.81
2023-04-16T14:38:31.548Z,15.80
2023-04-16T14:41:00.546Z,15.73
2023-04-16T14:43:28.539Z,15.65
2023-04-16T14:45:58.651Z,15.60
2023-04-16T14:48:26.559Z,15.61
2023-04-16T14:50:54.817Z,15.65
2023-04-16T14:53:24.556Z,15.68
2023-04-16T14:55:53.511Z,15.63
2023-04-16T14:58:21.946Z,15.63
2023-04-16T15:00:49.719Z,15.61
2023-04-16T15:03:19.230Z,15.68
2023-04-16T15:05:50.766Z,15.94
2023-04-16T15:08:18.591Z,16.07
2023-04-16T15:10:46.365Z,16.37
2023-04-16T15:13:14.221Z,16.27
2023-04-16T15:15:42.023Z,16.08
2023-04-16T15:18:10.018Z,15.93
2023-04-16T15:20:39.277Z,15.74
2023-04-16T15:23:07.076Z,15.67
2023-04-16T15:25:34.911Z,15.57
2023-04-16T15:28:02.963Z,15.60
2023-04-16T15:30:32.137Z,15.50
2023-04-16T15:33:00.594Z,15.55
2023-04-16T15:35:28.420Z,15.56
2023-04-16T15:37:57.670Z,15.54
2023-04-16T15:40:26.344Z,15.64
2023-04-16T15:42:55.915Z,15.72
2023-04-16T15:45:23.959Z,15.47
2023-04-16T15:47:52.042Z,15.40
2023-04-16T15:50:20.822Z,15.08
2023-04-16T15:52:48.736Z,14.88
2023-04-16T15:55:19.206Z,14.85
2023-04-16T15:57:47.098Z,14.70
2023-04-16T16:00:17.107Z,14.61
2023-04-16T16:02:46.664Z,14.55
2023-04-16T16:05:15.639Z,14.61
2023-04-16T16:07:44.137Z,14.49
2023-04-16T16:10:13.104Z,14.19
2023-04-16T16:12:42.865Z,14.18
2023-04-16T16:15:11.987Z,14.14
2023-04-16T16:17:40.581Z,13.98
2023-04-16T16:20:10.394Z,14.01
2023-04-16T16:22:39.108Z,14.05
2023-04-16T16:25:10.133Z,14.07
2023-04-16T16:27:38.138Z,13.93
2023-04-16T16:30:09.135Z,13.75
2023-04-16T16:32:37.708Z,13.73
2023-04-16T16:35:05.983Z,13.77
2023-04-16T16:37:33.720Z,13.75
2023-04-16T16:40:01.690Z,13.76
2023-04-16T16:42:29.484Z,13.66
2023-04-16T16:44:57.623Z,13.62
2023-04-16T16:47:26.950Z,13.47
2023-04-16T16:49:54.874Z,13.57
2023-04-16T16:52:24.675Z,13.63
2023-04-16T16:54:52.529Z,13.69
2023-04-16T16:57:20.793Z,13.73
2023-04-16T16:59:50.342Z,13.77
2023-04-16T17:02:18.185Z,13.75
2023-04-16T17:04:49.524Z,13.73
2023-04-16T17:07:17.635Z,13.67
2023-04-16T17:09:46.170Z,13.65
2023-04-16T17:12:13.929Z,13.68
2023-04-16T17:14:41.926Z,13.73
2023-04-16T17:17:09.964Z,13.77
2023-04-16T17:19:40.645Z,13.73
2023-04-16T17:22:09.812Z,13.70
2023-04-16T17:24:37.803Z,13.57
2023-04-16T17:27:05.855Z,13.50
2023-04-16T17:29:33.638Z,13.46
2023-04-16T17:32:01.452Z,13.41
2023-04-16T17:34:29.358Z,13.44
2023-04-16T17:36:58.860Z,13.46
2023-04-16T17:39:27.914Z,13.39
2023-04-16T17:41:58.470Z,13.40
2023-04-16T17:44:28.039Z,13.41
2023-04-16T17:46:55.751Z,13.33
2023-04-16T17:49:23.480Z,13.33
2023-04-16T17:51:51.298Z,13.31
2023-04-16T17:54:19.102Z,13.16
2023-04-16T17:56:48.224Z,13.21
2023-04-16T17:59:15.997Z,13.21
2023-04-16T18:01:49.728Z,13.15
2023-04-16T18:04:18.124Z,13.13
2023-04-16T18:06:46.477Z,13.11
2023-04-16T18:09:14.450Z,13.07
2023-04-16T18:11:42.535Z,13.05
2023-04-16T18:14:14.060Z,12.98
2023-04-16T18:16:45.844Z,13.03
2023-04-16T18:19:21.522Z,13.02
2023-04-16T18:21:51.355Z,13.03
2023-04-16T18:24:20.898Z,13.07
2023-04-16T18:26:48.914Z,13.14
2023-04-16T18:29:26.477Z,13.10
2023-04-16T18:31:55.656Z,13.10
2023-04-16T18:34:27.014Z,13.11
2023-04-16T18:36:54.931Z,13.04
2023-04-16T18:39:23.113Z,12.93
2023-04-16T18:41:52.807Z,12.95
2023-04-16T18:44:23.264Z,13.00
2023-04-16T18:46:51.388Z,13.02
2023-04-16T18:49:19.199Z,13.02
2023-04-16T18:51:47.034Z,13.02
2023-04-16T18:54:15.706Z,12.98
2023-04-16T18:56:43.659Z,13.00
2023-04-16T18:59:12.217Z,12.97
2023-04-16T19:01:54.123Z,12.93
2023-04-16T19:04:26.913Z,12.93
2023-04-16T19:06:57.680Z,12.90
2023-04-16T19:09:27.726Z,12.81
2023-04-16T19:11:56.141Z,12.80
2023-04-16T19:14:26.017Z,12.77
2023-04-16T19:16:55.912Z,12.81
2023-04-16T19:19:25.056Z,12.84
2023-04-16T19:21:52.959Z,12.74
2023-04-16T19:24:20.973Z,12.59
2023-04-16T19:26:49.354Z,12.54
2023-04-16T19:29:18.157Z,12.56
2023-04-16T19:31:48.482Z,12.59
2023-04-16T19:34:20.072Z,12.60
2023-04-16T19:36:47.942Z,12.60
2023-04-16T19:39:15.993Z,12.57
2023-04-16T19:41:43.936Z,12.62
2023-04-16T19:44:12.376Z,12.67
2023-04-16T19:46:40.309Z,12.70
2023-04-16T19:49:08.547Z,12.69
2023-04-16T19:51:38.087Z,12.68
2023-04-16T19:54:09.745Z,12.56
2023-04-16T19:56:38.390Z,12.55
2023-04-16T19:59:06.344Z,12.40
2023-04-16T20:01:35.621Z,12.42
2023-04-16T20:04:04.195Z,12.42
2023-04-16T20:06:34.951Z,12.44
2023-04-16T20:09:04.888Z,12.35
2023-04-16T20:11:32.620Z,12.21
2023-04-16T20:14:01.226Z,12.11
2023-04-16T20:16:30.108Z,11.98
2023-04-16T20:19:07.989Z,11.90
2023-04-16T20:21:36.943Z,11.92
2023-04-16T20:24:10.449Z,11.93
2023-04-16T20:26:38.569Z,11.90
2023-04-16T20:29:06.466Z,11.92
2023-04-16T20:31:34.304Z,11.86
2023-04-16T20:34:02.231Z,11.85
2023-04-16T20:36:29.962Z,11.86
2023-04-16T20:38:59.397Z,11.81
2023-04-16T20:41:30.102Z,11.66
2023-04-16T20:43:58.071Z,11.66
2023-04-16T20:46:25.814Z,11.74
2023-04-16T20:48:53.509Z,11.66
2023-04-16T20:51:21.520Z,11.72
2023-04-16T20:53:50.101Z,11.69
2023-04-16T20:56:17.828Z,11.78
2023-04-16T20:58:46.965Z,11.79
2023-04-16T21:01:14.841Z,11.80
2023-04-16T21:03:42.992Z,11.74
2023-04-16T21:06:14.351Z,11.70
2023-04-16T21:08:42.125Z,11.68
2023-04-16T21:11:09.842Z,11.65
2023-04-16T21:13:38.138Z,11.65
2023-04-16T21:16:09.728Z,11.58
2023-04-16T21:18:37.903Z,11.62
2023-04-16T21:21:05.809Z,11.59
2023-04-16T21:23:33.620Z,11.60
2023-04-16T21:26:01.305Z,11.52
2023-04-16T21:28:29.414Z,11.52
2023-04-16T21:30:57.472Z,11.53
2023-04-16T21:33:26.646Z,11.56
2023-04-16T21:35:54.779Z,11.60
2023-04-16T21:38:23.310Z,11.56
2023-04-16T21:40:53.937Z,11.56
2023-04-16T21:43:21.774Z,11.59
2023-04-16T21:45:49.641Z,11.66
2023-04-16T21:48:17.385Z,11.72
2023-04-16T21:50:46.506Z,11.76
2023-04-16T21:53:14.365Z,11.67
2023-04-16T21:55:42.185Z,11.66
2023-04-16T21:58:09.989Z,11.66
2023-04-16T22:00:37.973Z,11.57
2023-04-16T22:03:05.974Z,11.49
2023-04-16T22:05:33.771Z,11.52
2023-04-16T22:08:16.878Z,11.52
2023-04-16T22:10:45.072Z,11.48
2023-04-16T22:13:13.809Z,11.47
2023-04-16T22:15:42.191Z,11.51
2023-04-16T22:18:10.394Z,11.52
2023-04-16T22:20:39.795Z,11.54
2023-04-16T22:23:08.966Z,11.61
2023-04-16T22:25:36.850Z,11.65
2023-04-16T22:28:04.647Z,11.64
2023-04-16T22:30:32.481Z,11.65
2023-04-16T22:33:00.986Z,11.65
2023-04-16T22:35:28.776Z,11.61
2023-04-16T22:37:56.574Z,11.54
2023-04-16T22:40:25.672Z,11.55
2023-04-16T22:42:53.416Z,11.50
2023-04-16T22:45:21.204Z,11.50
2023-04-16T22:47:48.973Z,11.37
2023-04-16T22:50:17.473Z,11.41
2023-04-16T22:52:45.226Z,11.43
2023-04-16T22:55:12.974Z,11.44
2023-04-16T22:57:42.171Z,11.41
2023-04-16T23:00:15.368Z,11.47
2023-04-16T23:02:43.271Z,11.41
2023-04-16T23:05:11.665Z,11.45
2023-04-16T23:07:39.635Z,11.35
2023-04-16T23:10:08.931Z,11.30
2023-04-16T23:12:38.110Z,11.22
2023-04-16T23:15:08.848Z,11.23
2023-04-16T23:17:36.918Z,11.25
2023-04-16T23:20:07.643Z,11.36
2023-04-16T23:22:35.997Z,11.27
2023-04-16T23:25:03.774Z,11.28
2023-04-16T23:27:32.478Z,11.36
2023-04-16T23:30:00.344Z,11.36
2023-04-16T23:32:29.516Z,11.49
2023-04-16T23:34:57.487Z,11.30
2023-04-16T23:37:25.400Z,11.23
2023-04-16T23:39:53.175Z,11.20
2023-04-16T23:42:20.991Z,11.23
2023-04-16T23:44:48.739Z,11.30
2023-04-16T23:47:16.422Z,11.30
2023-04-16T23:49:45.505Z,11.31
2023-04-16T23:52:13.302Z,11.35
2023-04-16T23:54:41.232Z,11.30
2023-04-16T23:57:09.071Z,11.33
2023-04-16T23:59:36.772Z,11.30
